Time;durP1;ratioP1;P1;durP2;ratioP2;P2;SDS_P1;SDS_P2;PMS_P1;PMS_P2;Temp;Humidity;BMP_temperature;BMP_pressure;BME280_temperature;BME280_humidity;BME280_pressure;Samples;Min_cycle;Max_cycle;Signal;HPM_P1;HPM_P2
2023/04/29 00:00:29;;;;;;;73.32;50.42;;;;;;;-146.25;100.00;52244.50;2087462;28;31046;-76
2023/04/29 00:01:31;;;;;;;74.43;51.35;;;;;;;-146.25;100.00;52270.88;2087394;28;36858;-76
2023/04/29 00:02:33;;;;;;;73.07;50.53;;;;;;;-146.25;100.00;52256.69;2087708;28;33046;-76
2023/04/29 00:03:35;;;;;;;74.47;50.72;;;;;;;-146.25;100.00;52238.44;2087871;28;31698;-76
2023/04/29 00:04:37;;;;;;;77.28;53.58;;;;;;;-146.25;100.00;52258.72;2087087;28;32660;-76
2023/04/29 00:05:39;;;;;;;71.95;49.97;;;;;;;-146.25;100.00;52252.63;2088022;28;30437;-75
2023/04/29 00:06:41;;;;;;;78.47;52.28;;;;;;;-146.25;100.00;52240.47;2087319;28;36475;-76
2023/04/29 00:07:42;;;;;;;82.65;53.08;;;;;;;-146.25;100.00;52228.28;2087734;28;33128;-76
2023/04/29 00:08:44;;;;;;;72.95;51.38;;;;;;;-146.25;100.00;52222.22;2093883;28;36112;-76
2023/04/29 00:09:46;;;;;;;79.45;53.95;;;;;;;-146.25;100.00;52287.09;2086832;28;35633;-75
2023/04/29 00:10:48;;;;;;;80.43;52.88;;;;;;;-146.25;100.00;52256.69;2086659;28;38301;-76
2023/04/29 00:11:50;;;;;;;79.95;54.17;;;;;;;-146.25;100.00;52242.50;2086703;28;33992;-76
2023/04/29 00:12:53;;;;;;;75.93;52.70;;;;;;;-146.25;100.00;52254.66;2086308;28;38547;-76
2023/04/29 00:13:54;;;;;;;78.63;52.80;;;;;;;-146.25;100.00;52203.97;2086994;28;31273;-75
2023/04/29 00:14:57;;;;;;;77.43;53.53;;;;;;;-146.25;100.00;52274.94;2079205;28;29423;-76
2023/04/29 00:15:58;;;;;;;79.68;53.38;;;;;;;-146.25;100.00;52262.75;2079674;28;37758;-75
2023/04/29 00:17:00;;;;;;;76.20;51.50;;;;;;;-146.25;100.00;52236.41;2079807;28;20041;-76
2023/04/29 00:18:03;;;;;;;79.85;51.60;;;;;;;-146.25;100.00;52276.97;2079558;28;32926;-75
2023/04/29 00:19:04;;;;;;;74.57;51.42;;;;;;;-146.25;100.00;52226.25;2079323;28;33843;-75
2023/04/29 00:20:11;;;;;;;82.40;52.67;;;;;;;-146.25;100.00;52262.75;2079312;28;33233;-76
2023/04/29 00:21:13;;;;;;;79.43;52.80;;;;;;;-146.25;100.00;52248.56;2079399;28;35352;-75
2023/04/29 00:22:15;;;;;;;79.43;52.72;;;;;;;-146.25;100.00;52266.81;2079520;28;31162;-75
2023/04/29 00:23:17;;;;;;;78.05;52.08;;;;;;;-146.25;100.00;52266.81;2079430;28;31562;-75
2023/04/29 00:24:21;;;;;;;79.25;52.38;;;;;;;-146.25;100.00;52242.50;2079663;28;34961;-75
2023/04/29 00:25:23;;;;;;;81.47;53.28;;;;;;;-146.25;100.00;52246.53;2087289;28;20037;-75
2023/04/29 00:26:24;;;;;;;80.15;53.25;;;;;;;-146.25;100.00;52214.09;2088342;28;28468;-75
2023/04/29 00:27:27;;;;;;;79.95;52.95;;;;;;;-146.25;100.00;52242.50;2080127;28;20124;-76
2023/04/29 00:28:28;;;;;;;82.88;53.17;;;;;;;-146.25;100.00;52258.72;2080562;28;27672;-75
2023/04/29 00:29:30;;;;;;;84.78;54.67;;;;;;;-146.25;100.00;52242.50;2081274;28;20042;-75
2023/04/29 00:30:33;;;;;;;82.25;53.20;;;;;;;-146.25;100.00;52270.88;2082804;28;24518;-75
2023/04/29 00:31:37;;;;;;;83.20;52.10;;;;;;;-146.25;100.00;52232.34;2087707;28;31037;-75
2023/04/29 00:32:39;;;;;;;78.43;52.35;;;;;;;-146.25;100.00;52224.25;2080440;28;31946;-76
2023/04/29 00:33:41;;;;;;;88.93;53.95;;;;;;;-146.25;100.00;52226.25;2088354;28;27746;-76
2023/04/29 00:34:43;;;;;;;88.43;56.30;;;;;;;-146.25;100.00;52258.72;2088735;28;20042;-75
2023/04/29 00:35:45;;;;;;;84.20;55.42;;;;;;;-146.25;100.00;52276.97;2080460;28;20844;-75
2023/04/29 00:36:48;;;;;;;90.88;55.72;;;;;;;-146.25;100.00;52234.38;2088339;28;28139;-75
2023/04/29 00:37:49;;;;;;;84.90;55.05;;;;;;;-146.25;100.00;52220.19;2089380;28;20037;-75
2023/04/29 00:38:51;;;;;;;82.35;55.60;;;;;;;-146.25;100.00;52262.75;2089651;28;28813;-75
2023/04/29 00:39:53;;;;;;;87.00;54.50;;;;;;;-146.25;100.00;52230.31;2089051;28;24451;-75
2023/04/29 00:40:55;;;;;;;85.85;56.13;;;;;;;-146.25;100.00;52222.22;2088283;28;32003;-75
2023/04/29 00:41:59;;;;;;;86.00;55.53;;;;;;;-146.25;100.00;52250.59;2088836;28;20076;-75
2023/04/29 00:43:01;;;;;;;86.47;55.15;;;;;;;-146.25;100.00;52270.88;2089283;28;21555;-75
2023/04/29 00:44:03;;;;;;;80.72;54.60;;;;;;;-146.25;100.00;52287.09;2088411;28;24430;-75
2023/04/29 00:45:09;;;;;;;78.57;53.45;;;;;;;-146.25;100.00;52244.50;2089024;28;20174;-75
2023/04/29 00:46:12;;;;;;;76.20;51.70;;;;;;;-146.25;100.00;52236.41;2089200;28;20046;-75
2023/04/29 00:47:14;;;;;;;84.35;54.28;;;;;;;-146.25;100.00;52264.78;2097016;28;28791;-75
2023/04/29 00:48:16;;;;;;;84.68;53.10;;;;;;;-146.25;100.00;52232.34;2096229;28;32791;-75
2023/04/29 00:49:18;;;;;;;79.63;52.35;;;;;;;-146.25;100.00;52256.69;2088383;28;20053;-75
2023/04/29 00:50:20;;;;;;;84.50;54.58;;;;;;;-146.25;100.00;52242.50;2080400;28;20088;-75
2023/04/29 00:51:23;;;;;;;83.65;54.28;;;;;;;-146.25;100.00;52258.72;2072614;28;23873;-75
2023/04/29 00:52:29;;;;;;;84.57;53.97;;;;;;;-146.25;100.00;52222.22;2079979;28;35089;-75
2023/04/29 00:53:31;;;;;;;84.45;54.17;;;;;;;-146.25;100.00;52248.56;2081095;28;29516;-75
2023/04/29 00:54:34;;;;;;;78.25;53.63;;;;;;;-146.25;100.00;52283.03;2088292;28;30597;-75
2023/04/29 00:55:36;;;;;;;81.70;53.85;;;;;;;-146.25;100.00;52236.41;2089001;28;20038;-76
2023/04/29 00:56:42;;;;;;;77.82;50.17;;;;;;;-146.25;100.00;52299.25;2096091;28;29022;-75
2023/04/29 00:57:48;;;;;;;78.32;51.15;;;;;;;-146.25;100.00;52287.09;2088751;28;20842;-75
2023/04/29 00:58:51;;;;;;;76.90;51.03;;;;;;;-146.25;100.00;52254.66;2080025;28;20173;-75
2023/04/29 00:59:55;;;;;;;78.07;50.15;;;;;;;-146.25;100.00;52264.78;2081217;28;25704;-75
2023/04/29 01:01:00;;;;;;;71.20;47.97;;;;;;;-146.25;100.00;52264.78;2088254;28;20131;-75
2023/04/29 01:02:03;;;;;;;62.33;44.08;;;;;;;-146.25;100.00;52230.31;2080516;28;26618;-74
2023/04/29 01:03:07;;;;;;;69.28;47.92;;;;;;;-146.25;100.00;52270.88;2088505;28;20164;-76
2023/04/29 01:04:09;;;;;;;71.38;47.40;;;;;;;-146.25;100.00;52262.75;2088426;28;24132;-75
2023/04/29 01:05:13;;;;;;;70.78;47.15;;;;;;;-146.25;100.00;52270.88;2088139;28;29705;-76
2023/04/29 01:06:40;;;;;;;66.38;47.10;;;;;;;-146.25;100.00;52289.13;2096980;28;21458;-74
2023/04/29 01:08:05;;;;;;;66.75;46.33;;;;;;;-146.25;100.00;52206.00;2088347;28;20126;-75
2023/04/29 01:09:42;;;;;;;63.65;45.05;;;;;;;-146.25;100.00;52252.63;2091579;28;20049;-75
2023/04/29 01:11:05;;;;;;;61.33;43.08;;;;;;;-146.25;100.00;52238.44;2086843;28;20026;-75
2023/04/29 01:12:35;;;;;;;62.92;43.25;;;;;;;-146.25;100.00;52244.50;2088951;28;20041;-75
2023/04/29 01:13:57;;;;;;;46.83;30.20;;;;;;;-146.25;100.00;52216.13;2088440;28;20068;-75
2023/04/29 01:15:21;;;;;;;56.88;38.40;;;;;;;-146.25;100.00;52234.38;2091339;28;20299;-75
2023/04/29 01:16:36;;;;;;;59.50;39.40;;;;;;;-146.25;100.00;52252.63;2088364;28;20181;-75
2023/04/29 01:17:49;;;;;;;56.95;38.45;;;;;;;-146.25;100.00;52216.13;2088078;28;20053;-75
2023/04/29 01:19:01;;;;;;;58.15;39.60;;;;;;;-146.25;100.00;52228.28;2073134;28;20181;-75
2023/04/29 01:20:09;;;;;;;55.78;41.33;;;;;;;-146.25;100.00;52226.25;2076501;28;20038;-75
2023/04/29 01:21:11;;;;;;;59.30;39.55;;;;;;;-146.25;100.00;52240.47;2088243;28;20041;-75
2023/04/29 01:22:13;;;;;;;62.70;40.40;;;;;;;-146.25;100.00;52295.19;2087589;28;27282;-75
2023/04/29 01:23:15;;;;;;;53.20;39.67;;;;;;;-146.25;100.00;52287.09;2088403;28;20033;-75
2023/04/29 01:24:19;;;;;;;52.40;38.90;;;;;;;-146.25;100.00;52224.25;2080021;28;20038;-75
2023/04/29 01:25:22;;;;;;;54.08;39.45;;;;;;;-146.25;100.00;52287.09;2081099;28;20917;-75
2023/04/29 01:27:04;;;;;;;56.05;37.80;;;;;;;-146.25;100.00;52236.41;2086883;28;20991;-75
2023/04/29 01:29:00;;;;;;;51.97;37.03;;;;;;;-146.25;100.00;52278.97;2086949;28;20049;-72
2023/04/29 01:30:22;;;;;;;51.38;35.85;;;;;;;-146.25;100.00;52252.63;2077677;28;20069;-75
2023/04/29 01:31:35;;;;;;;48.95;34.35;;;;;;;-146.25;100.00;52248.56;2083032;28;20076;-75
2023/04/29 01:33:02;;;;;;;49.95;35.65;;;;;;;-146.25;100.00;52234.38;2078157;28;20896;-75
2023/04/29 01:34:46;;;;;;;53.17;35.70;;;;;;;-146.25;100.00;52276.97;2085372;28;20787;-75
2023/04/29 01:36:24;;;;;;;50.75;34.85;;;;;;;-146.25;100.00;52258.72;2088440;28;20060;-75
2023/04/29 01:37:40;;;;;;;54.10;33.25;;;;;;;-146.25;100.00;52256.69;2079475;28;20049;-75
2023/04/29 01:38:59;;;;;;;47.55;33.17;;;;;;;-146.25;100.00;52274.94;2083459;28;21936;-75
2023/04/29 01:40:25;;;;;;;49.83;34.67;;;;;;;-146.25;100.00;52250.59;2082885;28;20993;-75
2023/04/29 01:42:02;;;;;;;43.63;31.95;;;;;;;-146.25;100.00;52276.97;2085426;28;20037;-74
2023/04/29 01:43:10;;;;;;;48.63;33.78;;;;;;;-146.25;100.00;52252.63;2082565;28;20045;-75
2023/04/29 01:44:19;;;;;;;47.15;33.38;;;;;;;-146.25;100.00;52283.03;2073148;28;21060;-75
2023/04/29 01:45:22;;;;;;;48.45;33.78;;;;;;;-146.25;100.00;52244.50;2082115;28;21839;-75
2023/04/29 01:46:24;;;;;;;50.50;34.00;;;;;;;-146.25;100.00;52250.59;2080775;28;20037;-75
2023/04/29 01:47:31;;;;;;;50.97;33.90;;;;;;;-146.25;100.00;52270.88;2080828;28;20164;-75
2023/04/29 01:48:33;;;;;;;47.45;33.55;;;;;;;-146.25;100.00;52256.69;2079441;28;24728;-75
2023/04/29 01:49:36;;;;;;;45.15;33.00;;;;;;;-146.25;100.00;52264.78;2088272;28;22658;-75
2023/04/29 01:50:41;;;;;;;46.80;34.10;;;;;;;-146.25;100.00;52244.50;2088216;28;20050;-75
2023/04/29 01:51:47;;;;;;;48.45;33.70;;;;;;;-146.25;100.00;52266.81;2080364;28;20030;-75
2023/04/29 01:52:48;;;;;;;49.92;35.63;;;;;;;-146.25;100.00;52252.63;2088138;28;20061;-75
2023/04/29 01:53:50;;;;;;;47.83;33.70;;;;;;;-146.25;100.00;52254.66;2087980;28;24505;-75
2023/04/29 01:54:52;;;;;;;51.38;33.13;;;;;;;-146.25;100.00;52264.78;2096762;28;20041;-75
2023/04/29 01:55:54;;;;;;;45.08;31.33;;;;;;;-146.25;100.00;52266.81;2088290;28;20029;-75
2023/04/29 01:57:03;;;;;;;46.58;32.70;;;;;;;-146.25;100.00;52248.56;2080658;28;20946;-75
2023/04/29 01:58:24;;;;;;;45.72;32.85;;;;;;;-146.25;100.00;52295.19;2089740;28;20143;-75
2023/04/29 01:59:35;;;;;;;48.17;33.13;;;;;;;-146.25;100.00;52234.38;2087992;28;20049;-75
2023/04/29 02:01:03;;;;;;;46.08;33.30;;;;;;;-146.25;100.00;52242.50;2059588;28;20841;-75
2023/04/29 02:02:07;;;;;;;46.00;33.40;;;;;;;-146.25;100.00;52266.81;2087973;28;20049;-75
2023/04/29 02:03:13;;;;;;;48.90;33.47;;;;;;;-146.25;100.00;52264.78;2080390;28;20810;-75
2023/04/29 02:04:19;;;;;;;50.85;34.67;;;;;;;-146.25;100.00;52230.31;2080813;28;20080;-75
2023/04/29 02:05:21;;;;;;;44.58;33.25;;;;;;;-146.25;100.00;52270.88;2079683;28;20915;-75
2023/04/29 02:06:31;;;;;;;49.63;34.45;;;;;;;-146.25;100.00;52250.59;2088348;28;20898;-75
2023/04/29 02:07:35;;;;;;;53.38;35.70;;;;;;;-146.25;100.00;52258.72;2080111;28;20103;-75
2023/04/29 02:08:37;;;;;;;54.40;35.63;;;;;;;-146.25;100.00;52303.31;2079835;28;22966;-75
2023/04/29 02:09:40;;;;;;;50.55;35.55;;;;;;;-146.25;100.00;52230.31;2088180;28;20183;-75
2023/04/29 02:10:53;;;;;;;51.33;35.72;;;;;;;-146.25;100.00;52230.31;2088219;28;20041;-75
2023/04/29 02:12:06;;;;;;;52.65;35.58;;;;;;;-146.25;100.00;52252.63;2082345;28;20242;-75
2023/04/29 02:13:10;;;;;;;52.92;36.90;;;;;;;-146.25;100.00;52266.81;2079594;28;34717;-75
2023/04/29 02:14:12;;;;;;;51.60;37.03;;;;;;;-146.25;100.00;52246.53;2088360;28;20167;-75
2023/04/29 02:15:14;;;;;;;51.28;35.85;;;;;;;-146.25;100.00;52248.56;2088218;28;20045;-75
2023/04/29 02:16:17;;;;;;;57.83;37.75;;;;;;;-146.25;100.00;52242.50;2079659;28;20085;-74
2023/04/29 02:17:28;;;;;;;56.42;36.67;;;;;;;-146.25;100.00;52244.50;2088732;28;20041;-75
2023/04/29 02:18:30;;;;;;;49.05;35.88;;;;;;;-146.25;100.00;52270.88;2088164;28;20115;-75
2023/04/29 02:19:32;;;;;;;54.38;37.03;;;;;;;-146.25;100.00;52272.91;2079563;28;20049;-75
2023/04/29 02:20:34;;;;;;;54.55;34.22;;;;;;;-146.25;100.00;52297.22;2079654;28;20619;-75
2023/04/29 02:21:39;;;;;;;56.75;37.13;;;;;;;-146.25;100.00;52258.72;2088283;28;20072;-75
2023/04/29 02:22:41;;;;;;;54.10;38.33;;;;;;;-146.25;100.00;52266.81;2087805;28;20049;-75
2023/04/29 02:23:44;;;;;;;53.83;36.28;;;;;;;-146.25;100.00;52293.19;2088151;28;20045;-75
2023/04/29 02:24:46;;;;;;;57.90;36.22;;;;;;;-146.25;100.00;52258.72;2087269;28;28423;-74
2023/04/29 02:25:48;;;;;;;54.88;36.55;;;;;;;-146.25;100.00;52258.72;2087484;28;29307;-75
2023/04/29 02:26:50;;;;;;;55.90;36.75;;;;;;;-146.25;100.00;52266.81;2087904;28;20111;-74
2023/04/29 02:27:55;;;;;;;51.00;36.10;;;;;;;-146.25;100.00;52262.75;2080096;28;21858;-74
2023/04/29 02:28:56;;;;;;;55.20;36.17;;;;;;;-146.25;100.00;52266.81;2079729;28;20038;-75
2023/04/29 02:29:58;;;;;;;53.50;35.45;;;;;;;-146.25;100.00;52246.53;2087426;28;35979;-75
2023/04/29 02:31:01;;;;;;;57.00;37.35;;;;;;;-146.25;100.00;52242.50;2101657;22;20026;-71
2023/04/29 02:32:05;;;;;;;58.60;36.40;;;;;;;-146.25;100.00;52274.94;2087558;28;20029;-71
2023/04/29 02:33:07;;;;;;;54.42;35.65;;;;;;;-146.25;100.00;52240.47;2079496;28;21924;-71
2023/04/29 02:34:09;;;;;;;53.40;35.25;;;;;;;-146.25;100.00;52283.03;2079895;28;20046;-71
2023/04/29 02:35:13;;;;;;;51.53;34.65;;;;;;;-146.25;100.00;52238.44;2079345;28;26064;-71
2023/04/29 02:36:17;;;;;;;52.97;33.58;;;;;;;-146.25;100.00;52262.75;2088002;28;20121;-71
2023/04/29 02:37:20;;;;;;;51.55;33.90;;;;;;;-146.25;100.00;52262.75;2087470;28;20053;-71
2023/04/29 02:38:21;;;;;;;54.72;35.28;;;;;;;-146.25;100.00;52281.00;2087286;28;32805;-71
2023/04/29 02:39:24;;;;;;;54.10;34.72;;;;;;;-146.25;100.00;52274.94;2078947;28;29973;-71
2023/04/29 02:40:28;;;;;;;53.50;34.65;;;;;;;-146.25;100.00;52260.72;2080061;28;20096;-71
2023/04/29 02:41:32;;;;;;;51.75;33.60;;;;;;;-146.25;100.00;52254.66;2079199;28;20041;-71
2023/04/29 02:42:34;;;;;;;51.72;33.78;;;;;;;-146.25;100.00;52258.72;2087501;28;28745;-71
2023/04/29 02:43:36;;;;;;;48.90;32.75;;;;;;;-146.25;100.00;52283.03;2078886;28;37514;-71
2023/04/29 02:44:38;;;;;;;50.42;32.65;;;;;;;-146.25;100.00;52272.91;2071359;28;20049;-71
2023/04/29 02:45:41;;;;;;;48.85;31.92;;;;;;;-146.25;100.00;52272.91;2079574;28;20037;-71
2023/04/29 02:46:44;;;;;;;52.97;33.47;;;;;;;-146.25;100.00;52258.72;2079488;28;20034;-71
2023/04/29 02:47:46;;;;;;;52.42;33.70;;;;;;;-146.25;100.00;52278.97;2087905;28;20045;-71
2023/04/29 02:48:48;;;;;;;50.05;33.20;;;;;;;-146.25;100.00;52262.75;2070976;28;20923;-71
2023/04/29 02:49:50;;;;;;;44.88;31.52;;;;;;;-146.25;100.00;52238.44;2071943;28;20038;-71
2023/04/29 02:50:52;;;;;;;50.63;32.88;;;;;;;-146.25;100.00;52250.59;2080349;28;20034;-71
2023/04/29 02:51:54;;;;;;;53.53;32.33;;;;;;;-146.25;100.00;52246.53;2071256;28;20042;-71
2023/04/29 02:52:57;;;;;;;50.88;32.10;;;;;;;-146.25;100.00;52254.66;2063630;28;20924;-71
2023/04/29 02:53:58;;;;;;;51.80;33.05;;;;;;;-146.25;100.00;52250.59;2071261;28;20057;-71
2023/04/29 02:55:00;;;;;;;51.30;32.55;;;;;;;-146.25;100.00;52250.59;2071547;28;20904;-71
2023/04/29 02:56:04;;;;;;;48.13;32.03;;;;;;;-146.25;100.00;52283.03;2079455;28;20046;-71
2023/04/29 02:57:06;;;;;;;50.85;33.25;;;;;;;-146.25;100.00;52285.06;2087247;28;20045;-70
2023/04/29 02:58:09;;;;;;;47.55;32.22;;;;;;;-146.25;100.00;52276.97;2078886;28;27771;-71
2023/04/29 02:59:10;;;;;;;50.15;34.00;;;;;;;-146.25;100.00;52256.69;2087685;28;20049;-70
2023/04/29 03:00:12;;;;;;;51.22;33.15;;;;;;;-146.25;100.00;52248.56;2087465;28;20172;-70
2023/04/29 03:01:16;;;;;;;50.70;31.67;;;;;;;-146.25;100.00;52244.50;2063950;28;20054;-71
2023/04/29 03:02:18;;;;;;;51.60;33.17;;;;;;;-146.25;100.00;52266.81;2073779;28;20408;-70
2023/04/29 03:03:24;;;;;;;52.13;32.70;;;;;;;-146.25;100.00;52289.13;2072593;28;20959;-71
2023/04/29 03:04:27;;;;;;;52.60;32.58;;;;;;;-146.25;100.00;52260.72;2063105;28;20038;-70
2023/04/29 03:05:29;;;;;;;51.78;32.45;;;;;;;-146.25;100.00;52256.69;2071561;28;20128;-70
2023/04/29 03:06:31;;;;;;;50.80;31.63;;;;;;;-146.25;100.00;52252.63;2079566;28;20053;-71
2023/04/29 03:07:33;;;;;;;49.58;32.67;;;;;;;-146.25;100.00;52276.97;2079301;28;20041;-71
2023/04/29 03:08:34;;;;;;;53.08;33.22;;;;;;;-146.25;100.00;52260.72;2071358;28;20216;-70
2023/04/29 03:09:36;;;;;;;50.72;33.25;;;;;;;-146.25;100.00;52246.53;2071566;28;20049;-71
2023/04/29 03:10:41;;;;;;;52.30;32.67;;;;;;;-146.25;100.00;52281.00;2078988;28;20795;-71
2023/04/29 03:11:43;;;;;;;50.58;32.60;;;;;;;-146.25;100.00;52246.53;2071620;28;24138;-70
2023/04/29 03:12:45;;;;;;;53.92;33.72;;;;;;;-146.25;100.00;52289.13;2079265;28;20188;-70
2023/04/29 03:13:47;;;;;;;50.67;32.88;;;;;;;-146.25;100.00;52303.31;2079611;28;20112;-71
2023/04/29 03:14:50;;;;;;;51.88;32.75;;;;;;;-146.25;100.00;52268.84;2070961;28;20050;-70
2023/04/29 03:15:52;;;;;;;46.40;31.80;;;;;;;-146.25;100.00;52272.91;2063372;28;20150;-70
2023/04/29 03:16:55;;;;;;;50.38;32.63;;;;;;;-146.25;100.00;52276.97;2071146;28;20182;-70
2023/04/29 03:18:00;;;;;;;47.03;30.25;;;;;;;-146.25;100.00;52295.19;2079476;28;20065;-70
2023/04/29 03:19:04;;;;;;;50.10;33.67;;;;;;;-146.25;100.00;52270.88;2079015;28;20041;-70
2023/04/29 03:20:09;;;;;;;48.42;32.00;;;;;;;-146.25;100.00;52250.59;2071417;28;34719;-70
2023/04/29 03:21:11;;;;;;;52.33;33.05;;;;;;;-146.25;100.00;52260.72;2070746;28;23266;-71
2023/04/29 03:22:16;;;;;;;48.85;31.90;;;;;;;-146.25;100.00;52250.59;2062815;28;20177;-71
2023/04/29 03:23:18;;;;;;;54.45;34.03;;;;;;;-146.25;100.00;52274.94;2063366;28;20043;-71
2023/04/29 03:24:20;;;;;;;53.65;34.33;;;;;;;-146.25;100.00;52244.50;2071338;28;20058;-71
2023/04/29 03:25:21;;;;;;;52.45;31.63;;;;;;;-146.25;100.00;52262.75;2071759;28;20098;-70
2023/04/29 03:26:24;;;;;;;52.97;33.25;;;;;;;-146.25;100.00;52268.84;2070986;28;20046;-70
2023/04/29 03:27:26;;;;;;;53.47;33.78;;;;;;;-146.25;100.00;52260.72;2071258;28;20216;-71
2023/04/29 03:28:28;;;;;;;56.30;34.30;;;;;;;-146.25;100.00;52283.03;2071146;28;20137;-70
2023/04/29 03:29:30;;;;;;;55.85;33.33;;;;;;;-146.25;100.00;52254.66;2072161;28;20949;-70
2023/04/29 03:30:32;;;;;;;54.25;34.28;;;;;;;-146.25;100.00;52272.91;2071720;28;23735;-71
2023/04/29 03:31:34;;;;;;;50.97;32.25;;;;;;;-146.25;100.00;52295.19;2069959;28;29299;-71
2023/04/29 03:32:36;;;;;;;50.55;33.10;;;;;;;-146.25;100.00;52252.63;2063469;28;20877;-70
2023/04/29 03:33:40;;;;;;;53.08;33.63;;;;;;;-146.25;100.00;52260.72;2071067;28;20260;-70
2023/04/29 03:34:41;;;;;;;53.20;33.53;;;;;;;-146.25;100.00;52291.16;2079192;28;20870;-71
2023/04/29 03:36:22;;;;;;;55.05;33.40;;;;;;;-146.25;100.00;52272.91;2054626;28;20189;-70
2023/04/29 03:37:36;;;;;;;51.05;32.38;;;;;;;-146.25;100.00;52276.97;2046387;28;20154;-71
2023/04/29 03:38:54;;;;;;;56.20;34.22;;;;;;;-146.25;100.00;52287.09;2048645;28;20052;-70
2023/04/29 03:39:55;;;;;;;57.13;34.92;;;;;;;-146.25;100.00;52266.81;2046609;28;20063;-70
2023/04/29 03:40:57;;;;;;;55.55;36.42;;;;;;;-146.25;100.00;52266.81;2046173;28;26787;-70
2023/04/29 03:42:01;;;;;;;58.25;35.25;;;;;;;-146.25;100.00;52258.72;2053577;28;23038;-70
2023/04/29 03:43:03;;;;;;;55.28;36.17;;;;;;;-146.25;100.00;52244.50;2079343;28;20991;-71
2023/04/29 03:44:05;;;;;;;60.65;36.75;;;;;;;-146.25;100.00;52287.09;2079418;28;20046;-71
2023/04/29 03:45:08;;;;;;;57.20;36.35;;;;;;;-146.25;100.00;52268.84;2079050;28;23534;-70
2023/04/29 03:46:10;;;;;;;58.10;36.08;;;;;;;-146.25;100.00;52291.16;2079307;28;20046;-70
2023/04/29 03:47:14;;;;;;;57.72;34.90;;;;;;;-146.25;100.00;52272.91;2079039;28;20038;-71
2023/04/29 03:48:16;;;;;;;57.35;34.88;;;;;;;-146.25;100.00;52250.59;2072402;28;20046;-70
2023/04/29 03:49:21;;;;;;;57.80;35.20;;;;;;;-146.25;100.00;52244.50;2079207;28;20277;-71
2023/04/29 03:50:24;;;;;;;60.72;36.20;;;;;;;-146.25;100.00;52216.13;2080021;28;20505;-71
2023/04/29 03:51:27;;;;;;;55.38;36.08;;;;;;;-146.25;100.00;52246.53;2070658;28;20039;-71
2023/04/29 03:52:38;;;;;;;56.80;35.65;;;;;;;-146.25;100.00;52295.19;2064330;28;20120;-70
2023/04/29 03:53:46;;;;;;;64.50;37.97;;;;;;;-146.25;100.00;52256.69;2071960;28;20094;-72
2023/04/29 03:54:47;;;;;;;59.78;36.38;;;;;;;-146.25;100.00;52281.00;2079274;28;20053;-72
2023/04/29 03:55:50;;;;;;;60.45;37.63;;;;;;;-146.25;100.00;52331.69;2079015;28;20085;-71
2023/04/29 03:56:51;;;;;;;61.25;37.05;;;;;;;-146.25;100.00;52260.72;2071248;28;21022;-73
2023/04/29 03:57:53;;;;;;;60.35;36.97;;;;;;;-146.25;100.00;52266.81;2070928;28;20995;-72
2023/04/29 03:58:56;;;;;;;60.28;38.20;;;;;;;-146.25;100.00;52303.31;2079441;28;20909;-72
2023/04/29 04:00:00;;;;;;;56.95;37.67;;;;;;;-146.25;100.00;52319.53;2070857;28;20042;-72
2023/04/29 04:01:02;;;;;;;59.38;37.35;;;;;;;-146.25;100.00;52281.00;2072068;28;20104;-71
2023/04/29 04:02:11;;;;;;;63.13;36.42;;;;;;;-146.25;100.00;52278.97;2080214;28;20094;-71
2023/04/29 04:03:14;;;;;;;65.05;37.53;;;;;;;-146.25;100.00;52242.50;2072208;28;20083;-71
2023/04/29 04:04:16;;;;;;;70.13;38.60;;;;;;;-146.25;100.00;52297.22;2072408;28;20202;-71
2023/04/29 04:05:23;;;;;;;63.10;37.20;;;;;;;-146.25;100.00;52266.81;2080939;28;20034;-70
2023/04/29 04:06:30;;;;;;;71.97;38.90;;;;;;;-146.25;100.00;52268.84;2080645;28;20038;-70
2023/04/29 04:07:32;;;;;;;66.32;37.88;;;;;;;-146.25;100.00;52287.09;2080825;28;20033;-71
2023/04/29 04:08:52;;;;;;;62.72;38.55;;;;;;;-146.25;100.00;52287.09;2071609;28;20050;-71
2023/04/29 04:09:59;;;;;;;62.97;37.83;;;;;;;-146.25;100.00;52301.28;2075931;28;20434;-71
2023/04/29 04:11:04;;;;;;;60.50;36.33;;;;;;;-146.25;100.00;52274.94;2072286;28;20045;-71
2023/04/29 04:12:11;;;;;;;62.35;36.67;;;;;;;-146.25;100.00;52260.72;2074262;28;20050;-70
2023/04/29 04:13:14;;;;;;;65.05;38.65;;;;;;;-146.25;100.00;52264.78;2072194;28;20726;-71
2023/04/29 04:14:17;;;;;;;64.90;39.33;;;;;;;-146.25;100.00;52258.72;2072736;28;20051;-71
2023/04/29 04:15:19;;;;;;;63.28;37.80;;;;;;;-146.25;100.00;52281.00;2072438;28;20590;-71
2023/04/29 04:16:22;;;;;;;66.70;39.08;;;;;;;-146.25;100.00;52303.31;2072191;28;20050;-71
2023/04/29 04:17:25;;;;;;;64.40;38.22;;;;;;;-146.25;100.00;52272.91;2080514;28;20989;-71
2023/04/29 04:18:27;;;;;;;68.97;39.20;;;;;;;-146.25;100.00;52262.75;2073035;28;20026;-71
2023/04/29 04:19:30;;;;;;;67.88;39.33;;;;;;;-146.25;100.00;52297.22;2080580;28;20089;-71
2023/04/29 04:20:32;;;;;;;62.90;37.33;;;;;;;-146.25;100.00;52305.34;2080682;28;20067;-71
2023/04/29 04:21:34;;;;;;;65.43;39.35;;;;;;;-146.25;100.00;52268.84;2080350;28;21234;-71
2023/04/29 04:22:40;;;;;;;67.20;37.70;;;;;;;-146.25;100.00;52303.31;2080567;28;20880;-71
2023/04/29 04:23:51;;;;;;;64.25;38.15;;;;;;;-146.25;100.00;52285.06;2080671;28;20149;-71
2023/04/29 04:24:56;;;;;;;64.70;38.10;;;;;;;-146.25;100.00;52291.16;2080468;28;20903;-71
2023/04/29 04:25:58;;;;;;;60.00;38.40;;;;;;;-146.25;100.00;52285.06;2080262;28;25557;-71
2023/04/29 04:27:32;;;;;;;64.07;37.40;;;;;;;-146.25;100.00;52266.81;2080139;28;20097;-71
2023/04/29 04:28:39;;;;;;;66.38;38.65;;;;;;;-146.25;100.00;52283.03;2072465;28;20046;-71
2023/04/29 04:29:47;;;;;;;61.22;37.13;;;;;;;-146.25;100.00;52291.16;2073188;28;20034;-71
2023/04/29 04:30:54;;;;;;;65.15;37.92;;;;;;;-146.25;100.00;52309.41;2080411;28;20049;-71
2023/04/29 04:31:55;;;;;;;67.30;40.00;;;;;;;-146.25;100.00;52287.09;2079759;28;24580;-71
2023/04/29 04:32:58;;;;;;;72.65;39.35;;;;;;;-146.25;100.00;52242.50;2068450;28;20050;-71
2023/04/29 04:34:00;;;;;;;66.90;38.50;;;;;;;-146.25;100.00;52276.97;2071332;28;20848;-71
2023/04/29 04:35:06;;;;;;;64.50;38.97;;;;;;;-146.25;100.00;52299.25;2072806;28;20183;-71
2023/04/29 04:36:08;;;;;;;65.60;38.20;;;;;;;-146.25;100.00;52303.31;2072131;28;20038;-71
2023/04/29 04:37:11;;;;;;;63.13;37.80;;;;;;;-146.25;100.00;52272.91;2080061;28;20049;-71
2023/04/29 04:38:14;;;;;;;66.72;39.03;;;;;;;-146.25;100.00;52307.38;2063230;28;20145;-71
2023/04/29 04:39:15;;;;;;;75.07;39.10;;;;;;;-146.25;100.00;52274.94;2056276;28;20111;-71
2023/04/29 04:40:23;;;;;;;67.32;37.83;;;;;;;-146.25;100.00;52311.44;2064857;28;20039;-71
2023/04/29 04:41:53;;;;;;;63.88;36.22;;;;;;;-146.25;100.00;52260.72;2066587;28;20050;-71
2023/04/29 04:42:55;;;;;;;61.83;37.65;;;;;;;-146.25;100.00;52307.38;2080584;28;20061;-71
2023/04/29 04:43:57;;;;;;;64.50;37.58;;;;;;;-146.25;100.00;52264.78;2080011;28;20076;-71
2023/04/29 04:45:17;;;;;;;62.33;35.65;;;;;;;-146.25;100.00;52262.75;2078369;28;20176;-71
2023/04/29 04:46:23;;;;;;;61.30;36.50;;;;;;;-146.25;100.00;52303.31;2071948;28;20128;-72
2023/04/29 04:47:44;;;;;;;;;;;;;;;-146.25;100.00;52305.34;2071573;28;20042;-71
2023/04/29 04:48:56;;;;;;;61.33;35.08;;;;;;;-146.25;100.00;52258.72;2080088;28;19961;-71
2023/04/29 04:49:58;;;;;;;60.95;34.78;;;;;;;-146.25;100.00;52307.38;2079924;28;20895;-70
2023/04/29 04:51:10;;;;;;;59.35;34.13;;;;;;;-146.25;100.00;52283.03;2079939;28;20050;-71
2023/04/29 04:52:12;;;;;;;59.55;34.35;;;;;;;-146.25;100.00;52250.59;2079664;28;20038;-70
2023/04/29 04:53:18;;;;;;;54.97;33.00;;;;;;;-146.25;100.00;52289.13;2072129;28;20927;-70